sensor_id;sensor_type;location;lat;lon;timestamp;P1;durP1;ratioP1;P2;durP2;ratioP2
30384;SDS011;17181;51.002;4.096;2023-02-28T00:00:27;5.23;;;3.30;;
30384;SDS011;17181;51.002;4.096;2023-02-28T00:02:54;3.73;;;2.73;;
30384;SDS011;17181;51.002;4.096;2023-02-28T00:05:20;4.23;;;3.23;;
30384;SDS011;17181;51.002;4.096;2023-02-28T00:07:48;6.27;;;2.87;;
30384;SDS011;17181;51.002;4.096;2023-02-28T00:10:17;3.37;;;2.73;;
30384;SDS011;17181;51.002;4.096;2023-02-28T00:12:51;6.67;;;2.70;;
30384;SDS011;17181;51.002;4.096;2023-02-28T00:15:19;5.00;;;2.87;;
30384;SDS011;17181;51.002;4.096;2023-02-28T00:17:46;2.77;;;2.37;;
30384;SDS011;17181;51.002;4.096;2023-02-28T00:20:12;8.33;;;3.90;;
30384;SDS011;17181;51.002;4.096;2023-02-28T00:22:39;4.13;;;3.20;;
30384;SDS011;17181;51.002;4.096;2023-02-28T00:25:06;3.37;;;2.50;;
30384;SDS011;17181;51.002;4.096;2023-02-28T00:27:34;4.80;;;2.67;;
30384;SDS011;17181;51.002;4.096;2023-02-28T00:30:03;2.90;;;2.70;;
30384;SDS011;17181;51.002;4.096;2023-02-28T00:32:31;5.17;;;2.87;;
30384;SDS011;17181;51.002;4.096;2023-02-28T00:34:57;2.47;;;2.23;;
30384;SDS011;17181;51.002;4.096;2023-02-28T00:37:22;5.83;;;3.33;;
30384;SDS011;17181;51.002;4.096;2023-02-28T00:39:48;3.10;;;2.80;;
30384;SDS011;17181;51.002;4.096;2023-02-28T00:42:15;4.63;;;2.80;;
30384;SDS011;17181;51.002;4.096;2023-02-28T00:44:40;7.00;;;2.97;;
30384;SDS011;17181;51.002;4.096;2023-02-28T00:47:06;3.33;;;2.90;;
30384;SDS011;17181;51.002;4.096;2023-02-28T00:49:32;4.80;;;2.37;;
30384;SDS011;17181;51.002;4.096;2023-02-28T00:51:58;4.23;;;3.13;;
30384;SDS011;17181;51.002;4.096;2023-02-28T00:54:25;2.50;;;2.03;;
30384;SDS011;17181;51.002;4.096;2023-02-28T00:56:51;3.53;;;2.83;;
30384;SDS011;17181;51.002;4.096;2023-02-28T00:59:17;4.87;;;3.03;;
30384;SDS011;17181;51.002;4.096;2023-02-28T01:01:44;3.63;;;2.27;;
30384;SDS011;17181;51.002;4.096;2023-02-28T01:04:10;6.43;;;3.17;;
30384;SDS011;17181;51.002;4.096;2023-02-28T01:06:36;3.90;;;3.23;;
30384;SDS011;17181;51.002;4.096;2023-02-28T01:09:04;3.43;;;2.33;;
30384;SDS011;17181;51.002;4.096;2023-02-28T01:11:31;9.13;;;3.13;;
30384;SDS011;17181;51.002;4.096;2023-02-28T01:13:57;10.83;;;2.60;;
30384;SDS011;17181;51.002;4.096;2023-02-28T01:16:23;6.83;;;3.30;;
30384;SDS011;17181;51.002;4.096;2023-02-28T01:18:50;3.87;;;2.60;;
30384;SDS011;17181;51.002;4.096;2023-02-28T01:21:16;3.07;;;2.60;;
30384;SDS011;17181;51.002;4.096;2023-02-28T01:23:43;4.00;;;2.50;;
30384;SDS011;17181;51.002;4.096;2023-02-28T01:26:11;6.17;;;3.20;;
30384;SDS011;17181;51.002;4.096;2023-02-28T01:28:39;18.40;;;3.03;;
30384;SDS011;17181;51.002;4.096;2023-02-28T01:31:05;7.57;;;3.27;;
30384;SDS011;17181;51.002;4.096;2023-02-28T01:33:31;3.93;;;3.10;;
30384;SDS011;17181;51.002;4.096;2023-02-28T01:35:59;5.07;;;3.40;;
30384;SDS011;17181;51.002;4.096;2023-02-28T01:38:25;7.03;;;2.80;;
30384;SDS011;17181;51.002;4.096;2023-02-28T01:40:53;2.30;;;2.00;;
30384;SDS011;17181;51.002;4.096;2023-02-28T01:43:20;5.10;;;3.57;;
30384;SDS011;17181;51.002;4.096;2023-02-28T01:45:51;1.90;;;1.80;;
30384;SDS011;17181;51.002;4.096;2023-02-28T01:48:18;9.47;;;3.47;;
30384;SDS011;17181;51.002;4.096;2023-02-28T01:50:46;9.03;;;3.83;;
30384;SDS011;17181;51.002;4.096;2023-02-28T01:53:15;8.03;;;3.13;;
30384;SDS011;17181;51.002;4.096;2023-02-28T01:55:45;4.93;;;2.83;;
30384;SDS011;17181;51.002;4.096;2023-02-28T01:58:13;6.77;;;2.80;;
30384;SDS011;17181;51.002;4.096;2023-02-28T02:00:40;3.07;;;2.77;;
30384;SDS011;17181;51.002;4.096;2023-02-28T02:03:10;3.60;;;3.03;;
30384;SDS011;17181;51.002;4.096;2023-02-28T02:05:39;3.60;;;3.07;;
30384;SDS011;17181;51.002;4.096;2023-02-28T02:08:06;9.70;;;3.13;;
30384;SDS011;17181;51.002;4.096;2023-02-28T02:10:39;7.23;;;3.13;;
30384;SDS011;17181;51.002;4.096;2023-02-28T02:18:54;8.77;;;3.47;;
30384;SDS011;17181;51.002;4.096;2023-02-28T02:29:51;4.57;;;2.97;;
30384;SDS011;17181;51.002;4.096;2023-02-28T02:38:09;7.53;;;2.37;;
30384;SDS011;17181;51.002;4.096;2023-02-28T02:43:50;3.97;;;3.00;;
30384;SDS011;17181;51.002;4.096;2023-02-28T02:46:37;4.27;;;3.63;;
30384;SDS011;17181;51.002;4.096;2023-02-28T02:49:13;8.43;;;4.00;;
30384;SDS011;17181;51.002;4.096;2023-02-28T02:51:42;10.60;;;3.27;;
30384;SDS011;17181;51.002;4.096;2023-02-28T02:56:41;3.33;;;2.40;;
30384;SDS011;17181;51.002;4.096;2023-02-28T02:59:10;3.30;;;2.93;;
30384;SDS011;17181;51.002;4.096;2023-02-28T03:01:39;3.30;;;3.00;;
30384;SDS011;17181;51.002;4.096;2023-02-28T03:04:13;7.40;;;2.73;;
30384;SDS011;17181;51.002;4.096;2023-02-28T03:06:45;4.50;;;3.80;;
30384;SDS011;17181;51.002;4.096;2023-02-28T03:09:11;10.07;;;3.13;;
30384;SDS011;17181;51.002;4.096;2023-02-28T03:11:38;3.53;;;2.90;;
30384;SDS011;17181;51.002;4.096;2023-02-28T03:19:45;11.00;;;3.40;;
30384;SDS011;17181;51.002;4.096;2023-02-28T03:22:14;5.93;;;3.97;;
30384;SDS011;17181;51.002;4.096;2023-02-28T03:27:45;3.53;;;3.00;;
30384;SDS011;17181;51.002;4.096;2023-02-28T03:33:14;3.97;;;2.27;;
30384;SDS011;17181;51.002;4.096;2023-02-28T03:36:03;6.70;;;3.63;;
30384;SDS011;17181;51.002;4.096;2023-02-28T03:41:17;6.03;;;3.87;;
30384;SDS011;17181;51.002;4.096;2023-02-28T03:43:49;5.73;;;3.07;;
30384;SDS011;17181;51.002;4.096;2023-02-28T03:46:20;10.27;;;3.90;;
30384;SDS011;17181;51.002;4.096;2023-02-28T03:49:04;3.00;;;2.70;;
30384;SDS011;17181;51.002;4.096;2023-02-28T03:51:36;4.30;;;3.60;;
30384;SDS011;17181;51.002;4.096;2023-02-28T03:54:05;9.50;;;3.40;;
30384;SDS011;17181;51.002;4.096;2023-02-28T03:56:37;11.30;;;3.80;;
30384;SDS011;17181;51.002;4.096;2023-02-28T03:59:16;6.40;;;3.10;;
30384;SDS011;17181;51.002;4.096;2023-02-28T04:01:47;4.57;;;2.93;;
30384;SDS011;17181;51.002;4.096;2023-02-28T04:04:15;28.00;;;4.17;;
30384;SDS011;17181;51.002;4.096;2023-02-28T04:06:42;5.17;;;3.67;;
30384;SDS011;17181;51.002;4.096;2023-02-28T04:09:09;6.27;;;3.47;;
30384;SDS011;17181;51.002;4.096;2023-02-28T04:11:38;7.30;;;3.27;;
30384;SDS011;17181;51.002;4.096;2023-02-28T04:14:06;4.90;;;3.17;;
30384;SDS011;17181;51.002;4.096;2023-02-28T04:16:34;6.80;;;3.37;;
30384;SDS011;17181;51.002;4.096;2023-02-28T04:19:02;12.07;;;4.33;;
30384;SDS011;17181;51.002;4.096;2023-02-28T04:21:37;11.10;;;3.50;;
30384;SDS011;17181;51.002;4.096;2023-02-28T04:24:08;6.67;;;3.83;;
30384;SDS011;17181;51.002;4.096;2023-02-28T04:26:40;4.80;;;3.43;;
30384;SDS011;17181;51.002;4.096;2023-02-28T04:29:09;3.20;;;2.93;;
30384;SDS011;17181;51.002;4.096;2023-02-28T04:31:36;5.07;;;3.40;;
30384;SDS011;17181;51.002;4.096;2023-02-28T04:34:02;5.70;;;3.87;;
30384;SDS011;17181;51.002;4.096;2023-02-28T04:36:28;7.37;;;3.67;;
30384;SDS011;17181;51.002;4.096;2023-02-28T04:38:54;3.43;;;2.73;;
30384;SDS011;17181;51.002;4.096;2023-02-28T04:41:20;6.97;;;2.30;;
30384;SDS011;17181;51.002;4.096;2023-02-28T04:43:46;7.63;;;3.80;;
30384;SDS011;17181;51.002;4.096;2023-02-28T04:46:12;4.17;;;3.13;;
30384;SDS011;17181;51.002;4.096;2023-02-28T04:48:38;4.97;;;4.13;;
30384;SDS011;17181;51.002;4.096;2023-02-28T04:51:08;10.87;;;4.33;;
30384;SDS011;17181;51.002;4.096;2023-02-28T04:53:36;6.03;;;3.17;;
30384;SDS011;17181;51.002;4.096;2023-02-28T04:56:03;13.57;;;3.27;;
30384;SDS011;17181;51.002;4.096;2023-02-28T04:58:30;7.47;;;3.47;;
30384;SDS011;17181;51.002;4.096;2023-02-28T05:01:01;5.90;;;3.60;;
30384;SDS011;17181;51.002;4.096;2023-02-28T05:03:28;3.13;;;2.50;;
30384;SDS011;17181;51.002;4.096;2023-02-28T05:05:54;9.03;;;4.37;;
30384;SDS011;17181;51.002;4.096;2023-02-28T05:08:20;7.10;;;3.97;;
30384;SDS011;17181;51.002;4.096;2023-02-28T05:10:45;5.03;;;3.47;;
30384;SDS011;17181;51.002;4.096;2023-02-28T05:13:11;5.93;;;3.27;;
30384;SDS011;17181;51.002;4.096;2023-02-28T05:15:38;8.60;;;4.57;;
30384;SDS011;17181;51.002;4.096;2023-02-28T05:18:03;6.73;;;3.77;;
30384;SDS011;17181;51.002;4.096;2023-02-28T05:20:29;6.37;;;3.37;;
30384;SDS011;17181;51.002;4.096;2023-02-28T05:22:56;5.20;;;3.30;;
30384;SDS011;17181;51.002;4.096;2023-02-28T05:25:23;5.90;;;3.37;;
30384;SDS011;17181;51.002;4.096;2023-02-28T05:27:49;6.67;;;4.47;;
30384;SDS011;17181;51.002;4.096;2023-02-28T05:30:15;4.40;;;3.80;;
30384;SDS011;17181;51.002;4.096;2023-02-28T05:32:42;5.60;;;3.67;;
30384;SDS011;17181;51.002;4.096;2023-02-28T05:35:08;5.67;;;3.37;;
30384;SDS011;17181;51.002;4.096;2023-02-28T05:37:37;5.63;;;3.57;;
30384;SDS011;17181;51.002;4.096;2023-02-28T05:40:04;5.57;;;3.20;;
30384;SDS011;17181;51.002;4.096;2023-02-28T05:42:37;8.97;;;3.97;;
30384;SDS011;17181;51.002;4.096;2023-02-28T05:45:03;5.93;;;3.07;;
30384;SDS011;17181;51.002;4.096;2023-02-28T05:47:30;4.70;;;3.17;;
30384;SDS011;17181;51.002;4.096;2023-02-28T05:49:56;7.17;;;3.23;;
30384;SDS011;17181;51.002;4.096;2023-02-28T05:52:21;9.17;;;3.90;;
30384;SDS011;17181;51.002;4.096;2023-02-28T05:54:48;9.20;;;3.80;;
30384;SDS011;17181;51.002;4.096;2023-02-28T05:57:14;8.13;;;4.17;;
30384;SDS011;17181;51.002;4.096;2023-02-28T05:59:40;4.47;;;3.20;;
30384;SDS011;17181;51.002;4.096;2023-02-28T06:02:06;5.63;;;4.60;;
30384;SDS011;17181;51.002;4.096;2023-02-28T06:04:37;4.47;;;3.20;;
30384;SDS011;17181;51.002;4.096;2023-02-28T06:07:02;4.60;;;3.80;;
30384;SDS011;17181;51.002;4.096;2023-02-28T06:09:28;6.80;;;3.87;;
30384;SDS011;17181;51.002;4.096;2023-02-28T06:11:54;4.00;;;3.30;;
30384;SDS011;17181;51.002;4.096;2023-02-28T06:14:22;10.83;;;3.70;;
30384;SDS011;17181;51.002;4.096;2023-02-28T06:16:48;5.83;;;4.13;;
30384;SDS011;17181;51.002;4.096;2023-02-28T06:19:14;6.47;;;3.93;;
30384;SDS011;17181;51.002;4.096;2023-02-28T06:21:40;17.20;;;4.13;;
30384;SDS011;17181;51.002;4.096;2023-02-28T06:24:07;11.13;;;4.43;;
30384;SDS011;17181;51.002;4.096;2023-02-28T06:26:33;6.23;;;3.47;;
30384;SDS011;17181;51.002;4.096;2023-02-28T06:28:59;11.23;;;3.93;;
30384;SDS011;17181;51.002;4.096;2023-02-28T06:31:25;7.17;;;3.83;;
30384;SDS011;17181;51.002;4.096;2023-02-28T06:33:51;8.50;;;4.07;;
30384;SDS011;17181;51.002;4.096;2023-02-28T06:36:17;7.63;;;3.80;;
30384;SDS011;17181;51.002;4.096;2023-02-28T06:38:43;4.23;;;3.27;;
30384;SDS011;17181;51.002;4.096;2023-02-28T06:41:10;7.37;;;3.60;;
30384;SDS011;17181;51.002;4.096;2023-02-28T06:43:38;6.43;;;4.23;;
30384;SDS011;17181;51.002;4.096;2023-02-28T06:46:07;4.17;;;2.90;;
30384;SDS011;17181;51.002;4.096;2023-02-28T06:48:35;6.90;;;3.47;;
30384;SDS011;17181;51.002;4.096;2023-02-28T06:51:08;6.23;;;4.33;;
30384;SDS011;17181;51.002;4.096;2023-02-28T06:53:36;11.23;;;4.37;;
30384;SDS011;17181;51.002;4.096;2023-02-28T06:56:05;5.27;;;3.90;;
30384;SDS011;17181;51.002;4.096;2023-02-28T06:58:32;10.63;;;4.77;;
30384;SDS011;17181;51.002;4.096;2023-02-28T07:00:59;5.07;;;3.33;;
30384;SDS011;17181;51.002;4.096;2023-02-28T07:03:25;9.07;;;4.10;;
30384;SDS011;17181;51.002;4.096;2023-02-28T07:05:51;4.07;;;3.03;;
30384;SDS011;17181;51.002;4.096;2023-02-28T07:08:17;6.90;;;4.07;;
30384;SDS011;17181;51.002;4.096;2023-02-28T07:10:43;4.53;;;3.27;;
30384;SDS011;17181;51.002;4.096;2023-02-28T07:13:09;10.67;;;3.97;;
30384;SDS011;17181;51.002;4.096;2023-02-28T07:15:36;8.13;;;3.87;;
30384;SDS011;17181;51.002;4.096;2023-02-28T07:18:02;7.57;;;3.37;;
30384;SDS011;17181;51.002;4.096;2023-02-28T07:20:28;7.40;;;4.37;;
30384;SDS011;17181;51.002;4.096;2023-02-28T07:22:54;12.17;;;3.87;;
30384;SDS011;17181;51.002;4.096;2023-02-28T07:25:25;16.17;;;3.93;;
30384;SDS011;17181;51.002;4.096;2023-02-28T07:27:53;5.17;;;3.77;;
30384;SDS011;17181;51.002;4.096;2023-02-28T07:30:19;5.83;;;3.57;;
30384;SDS011;17181;51.002;4.096;2023-02-28T07:32:45;20.73;;;3.17;;
30384;SDS011;17181;51.002;4.096;2023-02-28T07:35:11;11.27;;;4.40;;
30384;SDS011;17181;51.002;4.096;2023-02-28T07:37:37;5.17;;;3.53;;
30384;SDS011;17181;51.002;4.096;2023-02-28T07:40:04;2.80;;;2.27;;
30384;SDS011;17181;51.002;4.096;2023-02-28T07:42:36;6.33;;;3.47;;
30384;SDS011;17181;51.002;4.096;2023-02-28T07:45:04;5.13;;;3.77;;
30384;SDS011;17181;51.002;4.096;2023-02-28T07:47:30;5.67;;;3.10;;
30384;SDS011;17181;51.002;4.096;2023-02-28T07:49:56;6.27;;;3.37;;
30384;SDS011;17181;51.002;4.096;2023-02-28T07:52:23;5.10;;;3.80;;
30384;SDS011;17181;51.002;4.096;2023-02-28T07:54:52;7.33;;;4.13;;
30384;SDS011;17181;51.002;4.096;2023-02-28T07:57:18;7.60;;;4.53;;
30384;SDS011;17181;51.002;4.096;2023-02-28T07:59:43;5.20;;;3.50;;
30384;SDS011;17181;51.002;4.096;2023-02-28T08:02:13;6.03;;;3.17;;
30384;SDS011;17181;51.002;4.096;2023-02-28T08:04:40;8.40;;;3.50;;
30384;SDS011;17181;51.002;4.096;2023-02-28T08:07:06;8.00;;;4.17;;
30384;SDS011;17181;51.002;4.096;2023-02-28T08:09:32;3.57;;;2.83;;
30384;SDS011;17181;51.002;4.096;2023-02-28T08:11:59;3.37;;;3.00;;
30384;SDS011;17181;51.002;4.096;2023-02-28T08:14:25;6.70;;;3.70;;
30384;SDS011;17181;51.002;4.096;2023-02-28T08:16:50;4.03;;;2.93;;
30384;SDS011;17181;51.002;4.096;2023-02-28T08:19:16;4.73;;;3.70;;
30384;SDS011;17181;51.002;4.096;2023-02-28T08:21:42;6.17;;;2.90;;
30384;SDS011;17181;51.002;4.096;2023-02-28T08:24:08;8.20;;;3.87;;
30384;SDS011;17181;51.002;4.096;2023-02-28T08:26:34;3.40;;;2.77;;
30384;SDS011;17181;51.002;4.096;2023-02-28T08:28:59;2.03;;;1.93;;
30384;SDS011;17181;51.002;4.096;2023-02-28T08:31:25;2.20;;;1.43;;
30384;SDS011;17181;51.002;4.096;2023-02-28T08:33:51;2.87;;;1.90;;
30384;SDS011;17181;51.002;4.096;2023-02-28T08:36:18;4.20;;;2.90;;
30384;SDS011;17181;51.002;4.096;2023-02-28T08:38:44;2.00;;;1.80;;
30384;SDS011;17181;51.002;4.096;2023-02-28T08:41:11;1.63;;;1.47;;
30384;SDS011;17181;51.002;4.096;2023-02-28T08:43:38;4.90;;;1.57;;
30384;SDS011;17181;51.002;4.096;2023-02-28T08:46:05;2.33;;;1.93;;
30384;SDS011;17181;51.002;4.096;2023-02-28T08:48:32;6.37;;;1.93;;
30384;SDS011;17181;51.002;4.096;2023-02-28T08:53:37;2.33;;;1.43;;
30384;SDS011;17181;51.002;4.096;2023-02-28T08:56:09;5.60;;;2.50;;
30384;SDS011;17181;51.002;4.096;2023-02-28T08:58:36;1.47;;;1.13;;
30384;SDS011;17181;51.002;4.096;2023-02-28T09:01:19;4.50;;;2.30;;
30384;SDS011;17181;51.002;4.096;2023-02-28T09:03:48;2.67;;;1.43;;
30384;SDS011;17181;51.002;4.096;2023-02-28T09:06:15;2.67;;;1.77;;
30384;SDS011;17181;51.002;4.096;2023-02-28T09:08:42;3.67;;;2.20;;
30384;SDS011;17181;51.002;4.096;2023-02-28T09:11:09;2.20;;;1.17;;
30384;SDS011;17181;51.002;4.096;2023-02-28T09:13:35;3.03;;;1.60;;
30384;SDS011;17181;51.002;4.096;2023-02-28T09:16:02;6.37;;;1.93;;
30384;SDS011;17181;51.002;4.096;2023-02-28T09:18:30;4.00;;;1.50;;
30384;SDS011;17181;51.002;4.096;2023-02-28T09:20:56;5.67;;;2.97;;
30384;SDS011;17181;51.002;4.096;2023-02-28T09:23:23;2.97;;;1.30;;
30384;SDS011;17181;51.002;4.096;2023-02-28T09:25:50;1.87;;;1.07;;
30384;SDS011;17181;51.002;4.096;2023-02-28T09:28:18;6.07;;;1.30;;
30384;SDS011;17181;51.002;4.096;2023-02-28T09:30:45;1.07;;;0.67;;
30384;SDS011;17181;51.002;4.096;2023-02-28T09:33:12;4.93;;;2.20;;
30384;SDS011;17181;51.002;4.096;2023-02-28T09:35:38;1.90;;;1.40;;
30384;SDS011;17181;51.002;4.096;2023-02-28T09:38:05;1.67;;;1.57;;
30384;SDS011;17181;51.002;4.096;2023-02-28T09:40:35;1.93;;;1.73;;
30384;SDS011;17181;51.002;4.096;2023-02-28T09:43:14;2.53;;;2.33;;
30384;SDS011;17181;51.002;4.096;2023-02-28T09:45:42;2.30;;;1.50;;
30384;SDS011;17181;51.002;4.096;2023-02-28T09:48:19;2.13;;;1.83;;
30384;SDS011;17181;51.002;4.096;2023-02-28T09:50:50;3.37;;;1.43;;
30384;SDS011;17181;51.002;4.096;2023-02-28T09:53:22;0.77;;;0.77;;
30384;SDS011;17181;51.002;4.096;2023-02-28T09:56:07;3.07;;;1.00;;
30384;SDS011;17181;51.002;4.096;2023-02-28T10:04:58;1.27;;;0.93;;
30384;SDS011;17181;51.002;4.096;2023-02-28T10:07:37;4.53;;;1.70;;
30384;SDS011;17181;51.002;4.096;2023-02-28T10:13:17;1.37;;;1.33;;
30384;SDS011;17181;51.002;4.096;2023-02-28T10:15:49;0.53;;;0.27;;
30384;SDS011;17181;51.002;4.096;2023-02-28T10:18:29;1.47;;;1.17;;
30384;SDS011;17181;51.002;4.096;2023-02-28T10:21:03;2.93;;;0.73;;
30384;SDS011;17181;51.002;4.096;2023-02-28T10:23:34;1.10;;;1.00;;
30384;SDS011;17181;51.002;4.096;2023-02-28T10:26:08;1.37;;;1.10;;
30384;SDS011;17181;51.002;4.096;2023-02-28T10:28:38;1.33;;;1.30;;
30384;SDS011;17181;51.002;4.096;2023-02-28T10:31:04;0.70;;;0.70;;
30384;SDS011;17181;51.002;4.096;2023-02-28T10:33:33;2.23;;;0.90;;
30384;SDS011;17181;51.002;4.096;2023-02-28T10:36:00;1.73;;;1.20;;
30384;SDS011;17181;51.002;4.096;2023-02-28T10:38:28;2.80;;;1.00;;
30384;SDS011;17181;51.002;4.096;2023-02-28T10:41:06;2.73;;;1.00;;
30384;SDS011;17181;51.002;4.096;2023-02-28T10:43:38;1.90;;;1.20;;
30384;SDS011;17181;51.002;4.096;2023-02-28T10:51:05;0.80;;;0.70;;
30384;SDS011;17181;51.002;4.096;2023-02-28T10:53:53;0.20;;;0.20;;
30384;SDS011;17181;51.002;4.096;2023-02-28T10:56:21;2.60;;;1.27;;
30384;SDS011;17181;51.002;4.096;2023-02-28T10:59:31;1.37;;;1.27;;
30384;SDS011;17181;51.002;4.096;2023-02-28T11:04:57;3.10;;;1.20;;
30384;SDS011;17181;51.002;4.096;2023-02-28T11:07:23;0.80;;;0.80;;
30384;SDS011;17181;51.002;4.096;2023-02-28T11:09:52;1.13;;;0.97;;
30384;SDS011;17181;51.002;4.096;2023-02-28T11:14:55;0.63;;;0.57;;
30384;SDS011;17181;51.002;4.096;2023-02-28T11:17:29;1.90;;;1.00;;
30384;SDS011;17181;51.002;4.096;2023-02-28T11:20:06;1.13;;;1.13;;
30384;SDS011;17181;51.002;4.096;2023-02-28T11:22:43;0.73;;;0.73;;
30384;SDS011;17181;51.002;4.096;2023-02-28T11:28:03;0.80;;;0.77;;
30384;SDS011;17181;51.002;4.096;2023-02-28T11:30:33;1.60;;;1.23;;
30384;SDS011;17181;51.002;4.096;2023-02-28T11:33:04;1.07;;;1.03;;
30384;SDS011;17181;51.002;4.096;2023-02-28T11:36:04;0.70;;;0.70;;
30384;SDS011;17181;51.002;4.096;2023-02-28T11:38:37;1.63;;;1.00;;
30384;SDS011;17181;51.002;4.096;2023-02-28T12:03:18;0.60;;;0.60;;
30384;SDS011;17181;51.002;4.096;2023-02-28T12:09:13;0.40;;;0.40;;
30384;SDS011;17181;51.002;4.096;2023-02-28T12:12:03;0.90;;;0.63;;
30384;SDS011;17181;51.002;4.096;2023-02-28T12:17:16;1.10;;;1.00;;
30384;SDS011;17181;51.002;4.096;2023-02-28T12:23:01;0.60;;;0.60;;
30384;SDS011;17181;51.002;4.096;2023-02-28T12:28:14;1.03;;;0.70;;
30384;SDS011;17181;51.002;4.096;2023-02-28T12:30:56;1.57;;;1.03;;
30384;SDS011;17181;51.002;4.096;2023-02-28T12:33:32;2.33;;;0.90;;
30384;SDS011;17181;51.002;4.096;2023-02-28T12:36:04;1.27;;;0.80;;
30384;SDS011;17181;51.002;4.096;2023-02-28T12:38:45;1.13;;;1.03;;
30384;SDS011;17181;51.002;4.096;2023-02-28T12:44:09;0.93;;;0.80;;
30384;SDS011;17181;51.002;4.096;2023-02-28T12:47:04;3.80;;;1.47;;
30384;SDS011;17181;51.002;4.096;2023-02-28T12:49:39;1.50;;;1.40;;
30384;SDS011;17181;51.002;4.096;2023-02-28T12:52:10;0.40;;;0.40;;
30384;SDS011;17181;51.002;4.096;2023-02-28T12:54:44;0.37;;;0.37;;
30384;SDS011;17181;51.002;4.096;2023-02-28T13:00:19;0.93;;;0.80;;
30384;SDS011;17181;51.002;4.096;2023-02-28T13:02:57;1.20;;;1.10;;
30384;SDS011;17181;51.002;4.096;2023-02-28T13:10:56;2.10;;;1.27;;
30384;SDS011;17181;51.002;4.096;2023-02-28T13:13:23;4.17;;;1.50;;
30384;SDS011;17181;51.002;4.096;2023-02-28T13:16:08;1.23;;;0.90;;
30384;SDS011;17181;51.002;4.096;2023-02-28T13:21:05;3.83;;;1.60;;
30384;SDS011;17181;51.002;4.096;2023-02-28T13:31:23;1.63;;;0.87;;
30384;SDS011;17181;51.002;4.096;2023-02-28T13:36:26;2.67;;;1.07;;
30384;SDS011;17181;51.002;4.096;2023-02-28T13:39:00;0.90;;;0.90;;
30384;SDS011;17181;51.002;4.096;2023-02-28T13:41:49;3.50;;;1.97;;
30384;SDS011;17181;51.002;4.096;2023-02-28T13:59:53;6.73;;;2.27;;
30384;SDS011;17181;51.002;4.096;2023-02-28T14:02:46;2.93;;;1.80;;
30384;SDS011;17181;51.002;4.096;2023-02-28T14:05:19;1.93;;;1.10;;
30384;SDS011;17181;51.002;4.096;2023-02-28T14:07:53;3.00;;;2.00;;
30384;SDS011;17181;51.002;4.096;2023-02-28T14:10:26;0.67;;;0.60;;
30384;SDS011;17181;51.002;4.096;2023-02-28T14:18:28;2.37;;;1.47;;
30384;SDS011;17181;51.002;4.096;2023-02-28T14:26:20;13.00;;;1.43;;
30384;SDS011;17181;51.002;4.096;2023-02-28T14:31:58;2.37;;;1.60;;
30384;SDS011;17181;51.002;4.096;2023-02-28T14:36:57;3.90;;;1.93;;
30384;SDS011;17181;51.002;4.096;2023-02-28T14:39:25;0.57;;;0.57;;
30384;SDS011;17181;51.002;4.096;2023-02-28T14:41:56;1.33;;;1.07;;
30384;SDS011;17181;51.002;4.096;2023-02-28T14:44:36;1.30;;;1.20;;
30384;SDS011;17181;51.002;4.096;2023-02-28T14:47:02;2.17;;;1.97;;
30384;SDS011;17181;51.002;4.096;2023-02-28T14:49:35;2.63;;;1.83;;
30384;SDS011;17181;51.002;4.096;2023-02-28T14:52:27;1.47;;;1.27;;
30384;SDS011;17181;51.002;4.096;2023-02-28T14:55:09;2.10;;;1.90;;
30384;SDS011;17181;51.002;4.096;2023-02-28T14:57:51;1.13;;;1.03;;
30384;SDS011;17181;51.002;4.096;2023-02-28T15:02:58;1.90;;;1.70;;
30384;SDS011;17181;51.002;4.096;2023-02-28T15:05:27;2.10;;;1.60;;
30384;SDS011;17181;51.002;4.096;2023-02-28T15:10:36;2.23;;;2.00;;
30384;SDS011;17181;51.002;4.096;2023-02-28T15:13:07;1.67;;;1.57;;
30384;SDS011;17181;51.002;4.096;2023-02-28T15:15:43;1.00;;;0.97;;
30384;SDS011;17181;51.002;4.096;2023-02-28T15:21:06;2.00;;;1.50;;
30384;SDS011;17181;51.002;4.096;2023-02-28T15:23:38;2.53;;;1.33;;
30384;SDS011;17181;51.002;4.096;2023-02-28T15:26:06;1.63;;;1.50;;
30384;SDS011;17181;51.002;4.096;2023-02-28T15:28:32;2.63;;;1.00;;
30384;SDS011;17181;51.002;4.096;2023-02-28T15:31:00;5.83;;;1.90;;
30384;SDS011;17181;51.002;4.096;2023-02-28T15:33:30;5.17;;;1.93;;
30384;SDS011;17181;51.002;4.096;2023-02-28T15:36:04;2.17;;;1.97;;
30384;SDS011;17181;51.002;4.096;2023-02-28T15:38:34;3.63;;;2.07;;
30384;SDS011;17181;51.002;4.096;2023-02-28T15:41:01;1.53;;;1.43;;
30384;SDS011;17181;51.002;4.096;2023-02-28T15:43:28;1.50;;;1.40;;
30384;SDS011;17181;51.002;4.096;2023-02-28T15:48:30;3.40;;;1.60;;
30384;SDS011;17181;51.002;4.096;2023-02-28T15:51:06;2.50;;;1.40;;
30384;SDS011;17181;51.002;4.096;2023-02-28T15:53:48;5.47;;;2.30;;
30384;SDS011;17181;51.002;4.096;2023-02-28T15:56:23;2.77;;;2.13;;
30384;SDS011;17181;51.002;4.096;2023-02-28T15:58:58;1.77;;;1.63;;
30384;SDS011;17181;51.002;4.096;2023-02-28T16:01:33;1.80;;;1.70;;
30384;SDS011;17181;51.002;4.096;2023-02-28T16:04:04;1.93;;;1.83;;
30384;SDS011;17181;51.002;4.096;2023-02-28T16:06:36;4.00;;;1.80;;
30384;SDS011;17181;51.002;4.096;2023-02-28T16:09:05;3.10;;;1.87;;
30384;SDS011;17181;51.002;4.096;2023-02-28T16:11:34;4.47;;;2.13;;
30384;SDS011;17181;51.002;4.096;2023-02-28T16:14:03;2.87;;;2.20;;
30384;SDS011;17181;51.002;4.096;2023-02-28T16:16:30;4.40;;;1.63;;
30384;SDS011;17181;51.002;4.096;2023-02-28T16:18:57;1.90;;;1.30;;
30384;SDS011;17181;51.002;4.096;2023-02-28T16:21:23;2.80;;;2.60;;
30384;SDS011;17181;51.002;4.096;2023-02-28T16:23:50;2.10;;;1.90;;
30384;SDS011;17181;51.002;4.096;2023-02-28T16:26:19;1.97;;;1.60;;
30384;SDS011;17181;51.002;4.096;2023-02-28T16:28:48;2.73;;;1.70;;
30384;SDS011;17181;51.002;4.096;2023-02-28T16:31:14;1.23;;;1.20;;
30384;SDS011;17181;51.002;4.096;2023-02-28T16:33:42;3.50;;;1.87;;
30384;SDS011;17181;51.002;4.096;2023-02-28T16:36:12;1.80;;;1.70;;
30384;SDS011;17181;51.002;4.096;2023-02-28T16:38:50;2.87;;;1.50;;
30384;SDS011;17181;51.002;4.096;2023-02-28T16:41:17;2.53;;;2.17;;
30384;SDS011;17181;51.002;4.096;2023-02-28T16:43:46;2.60;;;2.40;;
30384;SDS011;17181;51.002;4.096;2023-02-28T16:46:13;3.00;;;2.47;;
30384;SDS011;17181;51.002;4.096;2023-02-28T16:48:40;2.67;;;1.90;;
30384;SDS011;17181;51.002;4.096;2023-02-28T16:51:08;6.20;;;2.40;;
30384;SDS011;17181;51.002;4.096;2023-02-28T16:53:37;3.83;;;2.73;;
30384;SDS011;17181;51.002;4.096;2023-02-28T16:56:02;5.73;;;2.47;;
30384;SDS011;17181;51.002;4.096;2023-02-28T16:58:29;3.27;;;2.90;;
30384;SDS011;17181;51.002;4.096;2023-02-28T17:00:55;3.07;;;2.50;;
30384;SDS011;17181;51.002;4.096;2023-02-28T17:03:22;4.63;;;2.13;;
30384;SDS011;17181;51.002;4.096;2023-02-28T17:05:50;2.73;;;2.17;;
30384;SDS011;17181;51.002;4.096;2023-02-28T17:08:15;2.93;;;2.03;;
30384;SDS011;17181;51.002;4.096;2023-02-28T17:10:41;2.07;;;1.83;;
30384;SDS011;17181;51.002;4.096;2023-02-28T17:13:07;6.37;;;2.70;;
30384;SDS011;17181;51.002;4.096;2023-02-28T17:15:34;4.13;;;2.97;;
30384;SDS011;17181;51.002;4.096;2023-02-28T17:18:01;3.13;;;2.37;;
30384;SDS011;17181;51.002;4.096;2023-02-28T17:20:28;3.27;;;2.10;;
30384;SDS011;17181;51.002;4.096;2023-02-28T17:22:54;2.37;;;1.97;;
30384;SDS011;17181;51.002;4.096;2023-02-28T17:25:20;2.53;;;2.07;;
30384;SDS011;17181;51.002;4.096;2023-02-28T17:27:47;2.57;;;2.37;;
30384;SDS011;17181;51.002;4.096;2023-02-28T17:30:17;3.50;;;2.70;;
30384;SDS011;17181;51.002;4.096;2023-02-28T17:32:53;4.77;;;3.73;;
30384;SDS011;17181;51.002;4.096;2023-02-28T17:35:22;4.03;;;2.77;;
30384;SDS011;17181;51.002;4.096;2023-02-28T17:37:48;6.10;;;2.70;;
30384;SDS011;17181;51.002;4.096;2023-02-28T17:40:15;2.70;;;2.50;;
30384;SDS011;17181;51.002;4.096;2023-02-28T17:42:44;3.90;;;2.23;;
30384;SDS011;17181;51.002;4.096;2023-02-28T17:45:11;6.83;;;2.63;;
30384;SDS011;17181;51.002;4.096;2023-02-28T17:47:37;15.47;;;2.97;;